sensor_id;sensor_type;location;lat;lon;timestamp;P1;durP1;ratioP1;P2;durP2;ratioP2
4827;SDS011;2428;48.732;9.148;2022-07-22T00:01:03;7.20;;;6.10;;
4827;SDS011;2428;48.732;9.148;2022-07-22T00:03:28;6.37;;;5.77;;
4827;SDS011;2428;48.732;9.148;2022-07-22T00:05:54;6.73;;;6.13;;
4827;SDS011;2428;48.732;9.148;2022-07-22T00:08:20;7.10;;;5.87;;
4827;SDS011;2428;48.732;9.148;2022-07-22T00:10:45;6.87;;;6.00;;
4827;SDS011;2428;48.732;9.148;2022-07-22T00:13:11;7.00;;;5.63;;
4827;SDS011;2428;48.732;9.148;2022-07-22T00:15:37;6.07;;;5.47;;
4827;SDS011;2428;48.732;9.148;2022-07-22T00:18:02;6.23;;;5.70;;
4827;SDS011;2428;48.732;9.148;2022-07-22T00:20:31;7.13;;;5.13;;
4827;SDS011;2428;48.732;9.148;2022-07-22T00:22:57;7.10;;;6.30;;
4827;SDS011;2428;48.732;9.148;2022-07-22T00:25:25;7.20;;;6.23;;
4827;SDS011;2428;48.732;9.148;2022-07-22T00:27:53;7.00;;;5.90;;
4827;SDS011;2428;48.732;9.148;2022-07-22T00:30:18;7.00;;;6.33;;
4827;SDS011;2428;48.732;9.148;2022-07-22T00:32:44;6.83;;;5.77;;
4827;SDS011;2428;48.732;9.148;2022-07-22T00:35:09;8.27;;;6.37;;
4827;SDS011;2428;48.732;9.148;2022-07-22T00:37:35;7.60;;;6.00;;
4827;SDS011;2428;48.732;9.148;2022-07-22T00:40:01;6.60;;;5.50;;
4827;SDS011;2428;48.732;9.148;2022-07-22T00:42:27;7.00;;;6.40;;
4827;SDS011;2428;48.732;9.148;2022-07-22T00:44:55;6.20;;;5.60;;
4827;SDS011;2428;48.732;9.148;2022-07-22T00:47:21;6.50;;;5.77;;
4827;SDS011;2428;48.732;9.148;2022-07-22T00:49:47;7.53;;;6.23;;
4827;SDS011;2428;48.732;9.148;2022-07-22T00:52:13;5.90;;;5.30;;
4827;SDS011;2428;48.732;9.148;2022-07-22T00:54:39;7.67;;;5.67;;
4827;SDS011;2428;48.732;9.148;2022-07-22T00:57:04;7.13;;;6.43;;
4827;SDS011;2428;48.732;9.148;2022-07-22T00:59:30;7.50;;;5.67;;
4827;SDS011;2428;48.732;9.148;2022-07-22T01:01:57;7.13;;;6.30;;
4827;SDS011;2428;48.732;9.148;2022-07-22T01:04:25;7.60;;;6.50;;
4827;SDS011;2428;48.732;9.148;2022-07-22T01:06:50;6.67;;;6.00;;
4827;SDS011;2428;48.732;9.148;2022-07-22T01:09:16;6.20;;;5.60;;
4827;SDS011;2428;48.732;9.148;2022-07-22T01:11:41;7.70;;;6.10;;
4827;SDS011;2428;48.732;9.148;2022-07-22T01:14:07;6.20;;;5.43;;
4827;SDS011;2428;48.732;9.148;2022-07-22T01:16:33;6.30;;;5.70;;
4827;SDS011;2428;48.732;9.148;2022-07-22T01:18:58;6.23;;;5.63;;
4827;SDS011;2428;48.732;9.148;2022-07-22T01:21:24;7.30;;;5.00;;
4827;SDS011;2428;48.732;9.148;2022-07-22T01:23:50;6.63;;;5.80;;
4827;SDS011;2428;48.732;9.148;2022-07-22T01:26:16;5.70;;;5.17;;
4827;SDS011;2428;48.732;9.148;2022-07-22T01:28:42;5.80;;;4.90;;
4827;SDS011;2428;48.732;9.148;2022-07-22T01:31:08;6.13;;;5.37;;
4827;SDS011;2428;48.732;9.148;2022-07-22T01:33:34;7.07;;;6.10;;
4827;SDS011;2428;48.732;9.148;2022-07-22T01:36:00;6.23;;;5.63;;
4827;SDS011;2428;48.732;9.148;2022-07-22T01:38:26;7.00;;;5.13;;
4827;SDS011;2428;48.732;9.148;2022-07-22T01:40:51;7.47;;;6.73;;
4827;SDS011;2428;48.732;9.148;2022-07-22T01:43:17;6.17;;;5.57;;
4827;SDS011;2428;48.732;9.148;2022-07-22T01:45:45;6.40;;;5.80;;
4827;SDS011;2428;48.732;9.148;2022-07-22T01:48:13;6.20;;;5.60;;
4827;SDS011;2428;48.732;9.148;2022-07-22T01:50:39;7.63;;;6.70;;
4827;SDS011;2428;48.732;9.148;2022-07-22T01:53:06;5.80;;;5.30;;
4827;SDS011;2428;48.732;9.148;2022-07-22T01:55:31;5.80;;;5.30;;
4827;SDS011;2428;48.732;9.148;2022-07-22T01:57:57;7.37;;;5.73;;
4827;SDS011;2428;48.732;9.148;2022-07-22T02:00:23;6.53;;;5.83;;
4827;SDS011;2428;48.732;9.148;2022-07-22T02:02:48;9.30;;;6.43;;
4827;SDS011;2428;48.732;9.148;2022-07-22T02:05:14;5.90;;;5.10;;
4827;SDS011;2428;48.732;9.148;2022-07-22T02:07:39;5.77;;;5.13;;
4827;SDS011;2428;48.732;9.148;2022-07-22T02:10:05;6.90;;;6.27;;
4827;SDS011;2428;48.732;9.148;2022-07-22T02:12:31;5.87;;;5.27;;
4827;SDS011;2428;48.732;9.148;2022-07-22T02:14:57;7.20;;;6.07;;
4827;SDS011;2428;48.732;9.148;2022-07-22T02:17:23;6.77;;;5.57;;
4827;SDS011;2428;48.732;9.148;2022-07-22T02:19:49;7.47;;;5.63;;
4827;SDS011;2428;48.732;9.148;2022-07-22T02:22:14;6.53;;;5.60;;
4827;SDS011;2428;48.732;9.148;2022-07-22T02:24:40;8.30;;;5.97;;
4827;SDS011;2428;48.732;9.148;2022-07-22T02:27:06;7.60;;;5.70;;
4827;SDS011;2428;48.732;9.148;2022-07-22T02:29:32;6.70;;;6.00;;
4827;SDS011;2428;48.732;9.148;2022-07-22T02:31:58;5.77;;;4.87;;
4827;SDS011;2428;48.732;9.148;2022-07-22T02:34:24;6.60;;;6.00;;
4827;SDS011;2428;48.732;9.148;2022-07-22T02:36:50;6.80;;;5.87;;
4827;SDS011;2428;48.732;9.148;2022-07-22T02:39:15;6.83;;;5.93;;
4827;SDS011;2428;48.732;9.148;2022-07-22T02:41:41;6.47;;;5.53;;
4827;SDS011;2428;48.732;9.148;2022-07-22T02:44:06;5.87;;;5.33;;
4827;SDS011;2428;48.732;9.148;2022-07-22T02:46:32;5.90;;;5.17;;
4827;SDS011;2428;48.732;9.148;2022-07-22T02:48:58;6.57;;;5.83;;
4827;SDS011;2428;48.732;9.148;2022-07-22T02:51:23;7.27;;;6.53;;
4827;SDS011;2428;48.732;9.148;2022-07-22T02:53:49;7.37;;;6.20;;
4827;SDS011;2428;48.732;9.148;2022-07-22T02:56:15;7.10;;;5.97;;
4827;SDS011;2428;48.732;9.148;2022-07-22T02:58:41;6.50;;;5.67;;
4827;SDS011;2428;48.732;9.148;2022-07-22T03:01:07;6.73;;;6.10;;
4827;SDS011;2428;48.732;9.148;2022-07-22T03:03:33;6.13;;;5.50;;
4827;SDS011;2428;48.732;9.148;2022-07-22T03:05:59;8.07;;;5.67;;
4827;SDS011;2428;48.732;9.148;2022-07-22T03:08:24;7.20;;;6.13;;
4827;SDS011;2428;48.732;9.148;2022-07-22T03:10:50;8.70;;;6.80;;
4827;SDS011;2428;48.732;9.148;2022-07-22T03:13:16;6.80;;;5.70;;
4827;SDS011;2428;48.732;9.148;2022-07-22T03:15:42;7.27;;;6.40;;
4827;SDS011;2428;48.732;9.148;2022-07-22T03:18:08;10.80;;;6.83;;
4827;SDS011;2428;48.732;9.148;2022-07-22T03:20:34;7.53;;;6.73;;
4827;SDS011;2428;48.732;9.148;2022-07-22T03:22:59;7.70;;;6.67;;
4827;SDS011;2428;48.732;9.148;2022-07-22T03:25:25;7.53;;;6.47;;
4827;SDS011;2428;48.732;9.148;2022-07-22T03:27:51;8.30;;;7.40;;
4827;SDS011;2428;48.732;9.148;2022-07-22T03:30:16;7.80;;;6.10;;
4827;SDS011;2428;48.732;9.148;2022-07-22T03:32:42;9.80;;;6.17;;
4827;SDS011;2428;48.732;9.148;2022-07-22T03:35:10;6.77;;;6.07;;
4827;SDS011;2428;48.732;9.148;2022-07-22T03:37:36;7.90;;;6.70;;
4827;SDS011;2428;48.732;9.148;2022-07-22T03:40:02;7.37;;;6.20;;
4827;SDS011;2428;48.732;9.148;2022-07-22T03:42:28;7.67;;;6.97;;
4827;SDS011;2428;48.732;9.148;2022-07-22T03:44:54;7.83;;;6.70;;
4827;SDS011;2428;48.732;9.148;2022-07-22T03:47:20;7.80;;;6.80;;
4827;SDS011;2428;48.732;9.148;2022-07-22T03:49:46;7.80;;;6.80;;
4827;SDS011;2428;48.732;9.148;2022-07-22T03:52:12;7.00;;;6.30;;
4827;SDS011;2428;48.732;9.148;2022-07-22T03:54:38;8.47;;;7.57;;
4827;SDS011;2428;48.732;9.148;2022-07-22T03:57:04;8.50;;;5.93;;
4827;SDS011;2428;48.732;9.148;2022-07-22T03:59:29;8.77;;;7.07;;
4827;SDS011;2428;48.732;9.148;2022-07-22T04:01:55;8.40;;;7.10;;
4827;SDS011;2428;48.732;9.148;2022-07-22T04:04:20;7.57;;;6.73;;
4827;SDS011;2428;48.732;9.148;2022-07-22T04:06:46;9.00;;;6.70;;
4827;SDS011;2428;48.732;9.148;2022-07-22T04:09:11;8.87;;;7.60;;
4827;SDS011;2428;48.732;9.148;2022-07-22T04:11:37;8.57;;;7.10;;
4827;SDS011;2428;48.732;9.148;2022-07-22T04:14:03;7.80;;;6.97;;
4827;SDS011;2428;48.732;9.148;2022-07-22T04:16:28;8.23;;;7.30;;
4827;SDS011;2428;48.732;9.148;2022-07-22T04:18:54;9.37;;;6.97;;
4827;SDS011;2428;48.732;9.148;2022-07-22T04:21:19;8.10;;;6.50;;
4827;SDS011;2428;48.732;9.148;2022-07-22T04:23:45;7.07;;;6.30;;
4827;SDS011;2428;48.732;9.148;2022-07-22T04:26:11;7.17;;;6.43;;
4827;SDS011;2428;48.732;9.148;2022-07-22T04:28:36;9.07;;;7.07;;
4827;SDS011;2428;48.732;9.148;2022-07-22T04:31:02;9.10;;;6.53;;
4827;SDS011;2428;48.732;9.148;2022-07-22T04:33:28;11.90;;;7.77;;
4827;SDS011;2428;48.732;9.148;2022-07-22T04:35:54;8.50;;;6.83;;
4827;SDS011;2428;48.732;9.148;2022-07-22T04:38:20;10.17;;;7.50;;
4827;SDS011;2428;48.732;9.148;2022-07-22T04:40:46;9.50;;;7.50;;
4827;SDS011;2428;48.732;9.148;2022-07-22T04:43:11;9.27;;;7.43;;
4827;SDS011;2428;48.732;9.148;2022-07-22T04:45:37;6.73;;;6.13;;
4827;SDS011;2428;48.732;9.148;2022-07-22T04:48:02;8.00;;;6.80;;
4827;SDS011;2428;48.732;9.148;2022-07-22T04:50:28;10.13;;;6.90;;
4827;SDS011;2428;48.732;9.148;2022-07-22T04:52:54;9.63;;;7.67;;
4827;SDS011;2428;48.732;9.148;2022-07-22T04:55:20;8.80;;;7.37;;
4827;SDS011;2428;48.732;9.148;2022-07-22T04:57:45;8.90;;;7.57;;
4827;SDS011;2428;48.732;9.148;2022-07-22T05:00:11;10.27;;;7.73;;
4827;SDS011;2428;48.732;9.148;2022-07-22T05:02:42;9.37;;;7.47;;
4827;SDS011;2428;48.732;9.148;2022-07-22T05:05:07;8.70;;;6.23;;
4827;SDS011;2428;48.732;9.148;2022-07-22T05:07:33;9.30;;;7.37;;
4827;SDS011;2428;48.732;9.148;2022-07-22T05:09:59;8.47;;;7.20;;
4827;SDS011;2428;48.732;9.148;2022-07-22T05:12:24;10.13;;;8.40;;
4827;SDS011;2428;48.732;9.148;2022-07-22T05:14:50;8.00;;;7.00;;
4827;SDS011;2428;48.732;9.148;2022-07-22T05:17:15;11.47;;;7.20;;
4827;SDS011;2428;48.732;9.148;2022-07-22T05:19:41;7.67;;;6.97;;
4827;SDS011;2428;48.732;9.148;2022-07-22T05:22:07;8.40;;;6.93;;
4827;SDS011;2428;48.732;9.148;2022-07-22T05:24:32;8.70;;;7.50;;
4827;SDS011;2428;48.732;9.148;2022-07-22T05:26:58;9.23;;;7.37;;
4827;SDS011;2428;48.732;9.148;2022-07-22T05:29:24;9.43;;;7.93;;
4827;SDS011;2428;48.732;9.148;2022-07-22T05:31:49;9.80;;;7.30;;
4827;SDS011;2428;48.732;9.148;2022-07-22T05:34:15;9.10;;;7.30;;
4827;SDS011;2428;48.732;9.148;2022-07-22T05:36:41;11.43;;;7.30;;
4827;SDS011;2428;48.732;9.148;2022-07-22T05:39:06;7.70;;;6.90;;
4827;SDS011;2428;48.732;9.148;2022-07-22T05:41:32;10.47;;;8.03;;
4827;SDS011;2428;48.732;9.148;2022-07-22T05:43:58;10.13;;;6.97;;
4827;SDS011;2428;48.732;9.148;2022-07-22T05:46:23;9.00;;;6.90;;
4827;SDS011;2428;48.732;9.148;2022-07-22T05:48:49;7.90;;;7.00;;
4827;SDS011;2428;48.732;9.148;2022-07-22T05:51:15;13.27;;;7.80;;
4827;SDS011;2428;48.732;9.148;2022-07-22T05:53:41;7.73;;;6.93;;
4827;SDS011;2428;48.732;9.148;2022-07-22T05:56:07;8.30;;;7.13;;
4827;SDS011;2428;48.732;9.148;2022-07-22T05:58:35;9.70;;;7.60;;
4827;SDS011;2428;48.732;9.148;2022-07-22T06:01:02;9.30;;;7.60;;
4827;SDS011;2428;48.732;9.148;2022-07-22T06:03:27;9.00;;;7.97;;
4827;SDS011;2428;48.732;9.148;2022-07-22T06:05:53;10.00;;;8.00;;
4827;SDS011;2428;48.732;9.148;2022-07-22T06:08:18;11.57;;;8.73;;
4827;SDS011;2428;48.732;9.148;2022-07-22T06:10:44;9.63;;;7.33;;
4827;SDS011;2428;48.732;9.148;2022-07-22T06:13:10;10.80;;;7.80;;
4827;SDS011;2428;48.732;9.148;2022-07-22T06:15:35;9.93;;;8.30;;
4827;SDS011;2428;48.732;9.148;2022-07-22T06:18:01;10.57;;;7.67;;
4827;SDS011;2428;48.732;9.148;2022-07-22T06:20:26;12.03;;;8.70;;
4827;SDS011;2428;48.732;9.148;2022-07-22T06:22:52;8.63;;;7.37;;
4827;SDS011;2428;48.732;9.148;2022-07-22T06:25:18;9.33;;;7.00;;
4827;SDS011;2428;48.732;9.148;2022-07-22T06:27:43;9.60;;;7.13;;
4827;SDS011;2428;48.732;9.148;2022-07-22T06:30:09;10.60;;;8.23;;
4827;SDS011;2428;48.732;9.148;2022-07-22T06:32:35;8.10;;;7.23;;
4827;SDS011;2428;48.732;9.148;2022-07-22T06:35:01;8.27;;;7.40;;
4827;SDS011;2428;48.732;9.148;2022-07-22T06:37:27;9.60;;;7.77;;
4827;SDS011;2428;48.732;9.148;2022-07-22T06:39:53;9.10;;;7.03;;
4827;SDS011;2428;48.732;9.148;2022-07-22T06:42:18;10.17;;;8.43;;
4827;SDS011;2428;48.732;9.148;2022-07-22T06:44:44;9.10;;;7.70;;
4827;SDS011;2428;48.732;9.148;2022-07-22T06:47:10;9.97;;;8.40;;
4827;SDS011;2428;48.732;9.148;2022-07-22T06:49:35;11.80;;;9.00;;
4827;SDS011;2428;48.732;9.148;2022-07-22T06:52:01;9.07;;;8.07;;
4827;SDS011;2428;48.732;9.148;2022-07-22T06:54:27;10.83;;;8.53;;
4827;SDS011;2428;48.732;9.148;2022-07-22T06:56:53;11.80;;;8.73;;
4827;SDS011;2428;48.732;9.148;2022-07-22T06:59:18;11.20;;;9.10;;
4827;SDS011;2428;48.732;9.148;2022-07-22T07:01:44;9.80;;;7.77;;
4827;SDS011;2428;48.732;9.148;2022-07-22T07:04:09;9.00;;;7.50;;
4827;SDS011;2428;48.732;9.148;2022-07-22T07:06:35;9.43;;;8.43;;
4827;SDS011;2428;48.732;9.148;2022-07-22T07:09:01;9.93;;;8.00;;
4827;SDS011;2428;48.732;9.148;2022-07-22T07:11:27;12.03;;;8.43;;
4827;SDS011;2428;48.732;9.148;2022-07-22T07:13:52;11.53;;;8.90;;
4827;SDS011;2428;48.732;9.148;2022-07-22T07:16:18;9.30;;;7.73;;
4827;SDS011;2428;48.732;9.148;2022-07-22T07:18:43;12.57;;;7.90;;
4827;SDS011;2428;48.732;9.148;2022-07-22T07:21:09;7.93;;;7.17;;
4827;SDS011;2428;48.732;9.148;2022-07-22T07:23:35;9.87;;;8.10;;
4827;SDS011;2428;48.732;9.148;2022-07-22T07:26:00;8.20;;;7.37;;
4827;SDS011;2428;48.732;9.148;2022-07-22T07:28:26;7.83;;;6.70;;
4827;SDS011;2428;48.732;9.148;2022-07-22T07:30:51;9.03;;;7.70;;
4827;SDS011;2428;48.732;9.148;2022-07-22T07:33:17;10.83;;;8.57;;
4827;SDS011;2428;48.732;9.148;2022-07-22T07:35:43;9.30;;;8.13;;
4827;SDS011;2428;48.732;9.148;2022-07-22T07:38:10;8.90;;;7.80;;
4827;SDS011;2428;48.732;9.148;2022-07-22T07:40:36;8.90;;;7.73;;
4827;SDS011;2428;48.732;9.148;2022-07-22T07:43:01;8.40;;;7.43;;
4827;SDS011;2428;48.732;9.148;2022-07-22T07:45:27;9.10;;;8.13;;
4827;SDS011;2428;48.732;9.148;2022-07-22T07:47:53;10.33;;;8.33;;
4827;SDS011;2428;48.732;9.148;2022-07-22T07:50:19;9.60;;;8.03;;
4827;SDS011;2428;48.732;9.148;2022-07-22T07:52:44;10.10;;;8.40;;
4827;SDS011;2428;48.732;9.148;2022-07-22T07:55:13;10.33;;;8.87;;
4827;SDS011;2428;48.732;9.148;2022-07-22T07:57:40;8.53;;;7.33;;
4827;SDS011;2428;48.732;9.148;2022-07-22T08:00:08;10.53;;;9.43;;
4827;SDS011;2428;48.732;9.148;2022-07-22T08:02:35;8.20;;;7.30;;
4827;SDS011;2428;48.732;9.148;2022-07-22T08:05:00;8.77;;;7.87;;
4827;SDS011;2428;48.732;9.148;2022-07-22T08:07:26;12.40;;;8.90;;
4827;SDS011;2428;48.732;9.148;2022-07-22T08:09:53;11.80;;;9.10;;
4827;SDS011;2428;48.732;9.148;2022-07-22T08:12:18;9.23;;;8.10;;
4827;SDS011;2428;48.732;9.148;2022-07-22T08:14:44;10.47;;;8.33;;
4827;SDS011;2428;48.732;9.148;2022-07-22T08:17:10;10.90;;;8.97;;
4827;SDS011;2428;48.732;9.148;2022-07-22T08:19:35;10.77;;;8.13;;
4827;SDS011;2428;48.732;9.148;2022-07-22T08:22:01;12.97;;;7.73;;
4827;SDS011;2428;48.732;9.148;2022-07-22T08:24:27;10.80;;;8.60;;
4827;SDS011;2428;48.732;9.148;2022-07-22T08:26:52;9.00;;;7.90;;
4827;SDS011;2428;48.732;9.148;2022-07-22T08:29:18;10.23;;;8.60;;
4827;SDS011;2428;48.732;9.148;2022-07-22T08:31:43;10.47;;;9.10;;
4827;SDS011;2428;48.732;9.148;2022-07-22T08:34:09;10.83;;;9.40;;
4827;SDS011;2428;48.732;9.148;2022-07-22T08:36:35;9.53;;;8.10;;
4827;SDS011;2428;48.732;9.148;2022-07-22T08:39:01;10.33;;;8.40;;
4827;SDS011;2428;48.732;9.148;2022-07-22T08:41:27;10.50;;;9.50;;
4827;SDS011;2428;48.732;9.148;2022-07-22T08:43:55;9.43;;;8.40;;
4827;SDS011;2428;48.732;9.148;2022-07-22T08:46:21;11.10;;;6.60;;
4827;SDS011;2428;48.732;9.148;2022-07-22T08:48:47;11.27;;;9.10;;
4827;SDS011;2428;48.732;9.148;2022-07-22T08:51:12;8.57;;;7.77;;
4827;SDS011;2428;48.732;9.148;2022-07-22T08:53:38;9.60;;;7.80;;
4827;SDS011;2428;48.732;9.148;2022-07-22T08:56:04;8.93;;;8.03;;
4827;SDS011;2428;48.732;9.148;2022-07-22T08:58:30;8.57;;;7.30;;
4827;SDS011;2428;48.732;9.148;2022-07-22T09:03:43;8.93;;;8.03;;
4827;SDS011;2428;48.732;9.148;2022-07-22T09:06:21;6.87;;;6.23;;
4827;SDS011;2428;48.732;9.148;2022-07-22T09:08:51;7.47;;;6.77;;
4827;SDS011;2428;48.732;9.148;2022-07-22T09:11:19;9.30;;;7.47;;
4827;SDS011;2428;48.732;9.148;2022-07-22T09:13:46;7.37;;;6.57;;
4827;SDS011;2428;48.732;9.148;2022-07-22T09:16:12;9.00;;;7.87;;
4827;SDS011;2428;48.732;9.148;2022-07-22T09:18:46;7.57;;;6.87;;
4827;SDS011;2428;48.732;9.148;2022-07-22T09:21:12;10.13;;;7.63;;
4827;SDS011;2428;48.732;9.148;2022-07-22T09:23:39;8.07;;;7.27;;
4827;SDS011;2428;48.732;9.148;2022-07-22T09:26:06;6.63;;;6.03;;
4827;SDS011;2428;48.732;9.148;2022-07-22T09:28:32;6.53;;;5.93;;
4827;SDS011;2428;48.732;9.148;2022-07-22T09:30:58;6.07;;;5.47;;
4827;SDS011;2428;48.732;9.148;2022-07-22T09:33:24;6.20;;;5.60;;
4827;SDS011;2428;48.732;9.148;2022-07-22T09:35:51;6.87;;;6.17;;
4827;SDS011;2428;48.732;9.148;2022-07-22T09:38:19;8.43;;;6.90;;
4827;SDS011;2428;48.732;9.148;2022-07-22T09:40:53;7.00;;;6.30;;
4827;SDS011;2428;48.732;9.148;2022-07-22T09:43:19;9.17;;;6.83;;
4827;SDS011;2428;48.732;9.148;2022-07-22T09:48:16;6.50;;;5.90;;
4827;SDS011;2428;48.732;9.148;2022-07-22T09:50:43;7.07;;;6.40;;
4827;SDS011;2428;48.732;9.148;2022-07-22T09:53:09;5.90;;;5.30;;
4827;SDS011;2428;48.732;9.148;2022-07-22T09:55:35;6.47;;;5.87;;
4827;SDS011;2428;48.732;9.148;2022-07-22T09:58:03;7.40;;;5.27;;
4827;SDS011;2428;48.732;9.148;2022-07-22T10:00:29;7.80;;;6.50;;
4827;SDS011;2428;48.732;9.148;2022-07-22T10:02:56;7.20;;;6.50;;
4827;SDS011;2428;48.732;9.148;2022-07-22T10:05:27;6.40;;;5.80;;
4827;SDS011;2428;48.732;9.148;2022-07-22T10:07:55;6.90;;;6.30;;
4827;SDS011;2428;48.732;9.148;2022-07-22T10:10:25;6.30;;;5.80;;
4827;SDS011;2428;48.732;9.148;2022-07-22T10:12:53;6.80;;;6.20;;
4827;SDS011;2428;48.732;9.148;2022-07-22T10:15:20;8.73;;;6.77;;
4827;SDS011;2428;48.732;9.148;2022-07-22T10:17:48;7.50;;;6.80;;
4827;SDS011;2428;48.732;9.148;2022-07-22T10:20:20;7.57;;;6.57;;
4827;SDS011;2428;48.732;9.148;2022-07-22T10:22:57;6.53;;;5.93;;
4827;SDS011;2428;48.732;9.148;2022-07-22T10:26:06;6.60;;;6.00;;
4827;SDS011;2428;48.732;9.148;2022-07-22T10:28:27;7.70;;;6.03;;
4827;SDS011;2428;48.732;9.148;2022-07-22T10:33:43;5.93;;;5.43;;
4827;SDS011;2428;48.732;9.148;2022-07-22T10:36:29;6.73;;;6.23;;
4827;SDS011;2428;48.732;9.148;2022-07-22T10:41:32;6.03;;;5.37;;
4827;SDS011;2428;48.732;9.148;2022-07-22T10:44:00;6.30;;;5.77;;
4827;SDS011;2428;48.732;9.148;2022-07-22T10:49:24;5.57;;;5.17;;
4827;SDS011;2428;48.732;9.148;2022-07-22T10:57:45;5.07;;;4.77;;
4827;SDS011;2428;48.732;9.148;2022-07-22T11:00:16;5.20;;;4.80;;
4827;SDS011;2428;48.732;9.148;2022-07-22T11:02:45;5.30;;;5.00;;
4827;SDS011;2428;48.732;9.148;2022-07-22T11:05:11;5.53;;;5.03;;
4827;SDS011;2428;48.732;9.148;2022-07-22T11:07:45;5.27;;;4.97;;
4827;SDS011;2428;48.732;9.148;2022-07-22T11:10:15;5.13;;;4.83;;
4827;SDS011;2428;48.732;9.148;2022-07-22T11:12:42;5.73;;;5.43;;
4827;SDS011;2428;48.732;9.148;2022-07-22T11:15:08;5.70;;;5.30;;
4827;SDS011;2428;48.732;9.148;2022-07-22T11:17:35;5.00;;;4.70;;
4827;SDS011;2428;48.732;9.148;2022-07-22T11:20:03;5.47;;;5.10;;
4827;SDS011;2428;48.732;9.148;2022-07-22T11:22:31;5.10;;;4.80;;
4827;SDS011;2428;48.732;9.148;2022-07-22T11:24:59;4.80;;;4.43;;
4827;SDS011;2428;48.732;9.148;2022-07-22T11:27:29;5.03;;;4.73;;
4827;SDS011;2428;48.732;9.148;2022-07-22T11:29:55;4.70;;;4.40;;
4827;SDS011;2428;48.732;9.148;2022-07-22T11:32:23;5.30;;;4.90;;
4827;SDS011;2428;48.732;9.148;2022-07-22T11:34:50;5.30;;;4.90;;
4827;SDS011;2428;48.732;9.148;2022-07-22T11:37:17;4.80;;;4.53;;
4827;SDS011;2428;48.732;9.148;2022-07-22T11:39:45;5.70;;;5.40;;
4827;SDS011;2428;48.732;9.148;2022-07-22T11:42:11;5.80;;;5.40;;
4827;SDS011;2428;48.732;9.148;2022-07-22T11:44:37;5.70;;;5.20;;
4827;SDS011;2428;48.732;9.148;2022-07-22T11:47:04;5.70;;;5.30;;
4827;SDS011;2428;48.732;9.148;2022-07-22T11:49:31;5.70;;;5.30;;
4827;SDS011;2428;48.732;9.148;2022-07-22T11:51:59;5.10;;;4.80;;
4827;SDS011;2428;48.732;9.148;2022-07-22T11:54:25;5.53;;;5.10;;
4827;SDS011;2428;48.732;9.148;2022-07-22T11:56:52;5.40;;;5.00;;
4827;SDS011;2428;48.732;9.148;2022-07-22T11:59:18;4.93;;;4.53;;
4827;SDS011;2428;48.732;9.148;2022-07-22T12:01:44;5.33;;;4.93;;
4827;SDS011;2428;48.732;9.148;2022-07-22T12:04:13;5.27;;;4.90;;
4827;SDS011;2428;48.732;9.148;2022-07-22T12:06:41;5.67;;;5.27;;
4827;SDS011;2428;48.732;9.148;2022-07-22T12:09:09;4.37;;;4.07;;
4827;SDS011;2428;48.732;9.148;2022-07-22T12:11:36;5.50;;;5.10;;
4827;SDS011;2428;48.732;9.148;2022-07-22T12:14:26;5.97;;;5.47;;
4827;SDS011;2428;48.732;9.148;2022-07-22T12:19:35;6.30;;;5.80;;
4827;SDS011;2428;48.732;9.148;2022-07-22T12:24:31;5.23;;;4.90;;
4827;SDS011;2428;48.732;9.148;2022-07-22T12:27:00;5.80;;;5.40;;
4827;SDS011;2428;48.732;9.148;2022-07-22T12:32:01;5.37;;;4.97;;
4827;SDS011;2428;48.732;9.148;2022-07-22T12:37:26;5.90;;;5.50;;
4827;SDS011;2428;48.732;9.148;2022-07-22T12:42:35;6.10;;;5.60;;
4827;SDS011;2428;48.732;9.148;2022-07-22T12:45:25;6.00;;;5.50;;
4827;SDS011;2428;48.732;9.148;2022-07-22T12:47:53;6.10;;;5.60;;
4827;SDS011;2428;48.732;9.148;2022-07-22T12:50:31;6.33;;;5.83;;
4827;SDS011;2428;48.732;9.148;2022-07-22T12:55:55;6.30;;;5.80;;
4827;SDS011;2428;48.732;9.148;2022-07-22T12:58:28;6.37;;;5.60;;
4827;SDS011;2428;48.732;9.148;2022-07-22T13:00:56;5.60;;;5.17;;
4827;SDS011;2428;48.732;9.148;2022-07-22T13:03:23;6.47;;;5.90;;
4827;SDS011;2428;48.732;9.148;2022-07-22T13:05:54;6.23;;;5.73;;
4827;SDS011;2428;48.732;9.148;2022-07-22T13:08:23;6.40;;;5.80;;
4827;SDS011;2428;48.732;9.148;2022-07-22T13:10:49;5.90;;;5.40;;
4827;SDS011;2428;48.732;9.148;2022-07-22T13:13:16;6.17;;;5.67;;
4827;SDS011;2428;48.732;9.148;2022-07-22T13:15:42;6.63;;;5.97;;
4827;SDS011;2428;48.732;9.148;2022-07-22T13:18:07;6.23;;;5.83;;
4827;SDS011;2428;48.732;9.148;2022-07-22T13:20:33;6.27;;;5.77;;
4827;SDS011;2428;48.732;9.148;2022-07-22T13:22:59;6.80;;;6.20;;
4827;SDS011;2428;48.732;9.148;2022-07-22T13:25:25;5.30;;;4.90;;
4827;SDS011;2428;48.732;9.148;2022-07-22T13:27:52;6.27;;;5.77;;
4827;SDS011;2428;48.732;9.148;2022-07-22T13:30:18;6.80;;;6.20;;
4827;SDS011;2428;48.732;9.148;2022-07-22T13:32:44;5.77;;;5.37;;
4827;SDS011;2428;48.732;9.148;2022-07-22T13:35:09;5.70;;;5.20;;
4827;SDS011;2428;48.732;9.148;2022-07-22T13:37:35;5.90;;;5.40;;
4827;SDS011;2428;48.732;9.148;2022-07-22T13:40:01;6.30;;;5.70;;
4827;SDS011;2428;48.732;9.148;2022-07-22T13:42:27;6.33;;;5.40;;
4827;SDS011;2428;48.732;9.148;2022-07-22T13:44:52;6.80;;;6.10;;
4827;SDS011;2428;48.732;9.148;2022-07-22T13:47:19;6.67;;;5.73;;
4827;SDS011;2428;48.732;9.148;2022-07-22T13:49:46;6.47;;;5.87;;
4827;SDS011;2428;48.732;9.148;2022-07-22T13:52:12;6.10;;;5.70;;
4827;SDS011;2428;48.732;9.148;2022-07-22T13:54:38;6.00;;;5.40;;
4827;SDS011;2428;48.732;9.148;2022-07-22T13:57:04;6.10;;;5.50;;
4827;SDS011;2428;48.732;9.148;2022-07-22T13:59:30;6.10;;;5.60;;
4827;SDS011;2428;48.732;9.148;2022-07-22T14:01:57;5.87;;;5.40;;
4827;SDS011;2428;48.732;9.148;2022-07-22T14:04:23;6.50;;;5.93;;
4827;SDS011;2428;48.732;9.148;2022-07-22T14:06:49;6.70;;;6.20;;
4827;SDS011;2428;48.732;9.148;2022-07-22T14:09:15;6.37;;;5.83;;
4827;SDS011;2428;48.732;9.148;2022-07-22T14:11:41;5.60;;;5.20;;
4827;SDS011;2428;48.732;9.148;2022-07-22T14:14:06;5.07;;;4.67;;
4827;SDS011;2428;48.732;9.148;2022-07-22T14:16:33;5.57;;;5.17;;
4827;SDS011;2428;48.732;9.148;2022-07-22T14:19:14;5.60;;;5.10;;
4827;SDS011;2428;48.732;9.148;2022-07-22T14:21:41;5.77;;;5.23;;
4827;SDS011;2428;48.732;9.148;2022-07-22T14:24:08;5.67;;;5.27;;
4827;SDS011;2428;48.732;9.148;2022-07-22T14:26:35;6.40;;;5.80;;
4827;SDS011;2428;48.732;9.148;2022-07-22T14:29:01;6.10;;;5.60;;
4827;SDS011;2428;48.732;9.148;2022-07-22T14:31:27;5.60;;;5.20;;
4827;SDS011;2428;48.732;9.148;2022-07-22T14:33:54;6.23;;;5.70;;
4827;SDS011;2428;48.732;9.148;2022-07-22T14:36:20;5.50;;;5.10;;
4827;SDS011;2428;48.732;9.148;2022-07-22T14:38:46;5.50;;;5.10;;
4827;SDS011;2428;48.732;9.148;2022-07-22T14:41:12;5.37;;;4.93;;
4827;SDS011;2428;48.732;9.148;2022-07-22T14:43:37;5.40;;;5.00;;
4827;SDS011;2428;48.732;9.148;2022-07-22T14:46:03;5.80;;;5.30;;
4827;SDS011;2428;48.732;9.148;2022-07-22T14:48:32;6.33;;;5.73;;
4827;SDS011;2428;48.732;9.148;2022-07-22T14:50:58;7.00;;;5.87;;
4827;SDS011;2428;48.732;9.148;2022-07-22T14:53:23;10.07;;;6.10;;
4827;SDS011;2428;48.732;9.148;2022-07-22T14:55:49;5.63;;;5.13;;
4827;SDS011;2428;48.732;9.148;2022-07-22T14:58:15;8.00;;;5.83;;
4827;SDS011;2428;48.732;9.148;2022-07-22T15:00:41;8.27;;;5.10;;
4827;SDS011;2428;48.732;9.148;2022-07-22T15:03:06;5.70;;;5.20;;
4827;SDS011;2428;48.732;9.148;2022-07-22T15:05:32;4.73;;;4.37;;
4827;SDS011;2428;48.732;9.148;2022-07-22T15:07:58;8.13;;;5.43;;
4827;SDS011;2428;48.732;9.148;2022-07-22T15:10:23;6.43;;;5.83;;
4827;SDS011;2428;48.732;9.148;2022-07-22T15:12:49;6.00;;;5.03;;
4827;SDS011;2428;48.732;9.148;2022-07-22T15:15:14;6.73;;;6.23;;
4827;SDS011;2428;48.732;9.148;2022-07-22T15:17:40;5.90;;;5.40;;
4827;SDS011;2428;48.732;9.148;2022-07-22T15:20:06;5.70;;;5.20;;
4827;SDS011;2428;48.732;9.148;2022-07-22T15:22:32;6.47;;;5.90;;
4827;SDS011;2428;48.732;9.148;2022-07-22T15:24:59;7.30;;;6.60;;
4827;SDS011;2428;48.732;9.148;2022-07-22T15:27:25;6.50;;;6.00;;
4827;SDS011;2428;48.732;9.148;2022-07-22T15:29:50;6.60;;;6.00;;
4827;SDS011;2428;48.732;9.148;2022-07-22T15:32:16;5.87;;;5.27;;
4827;SDS011;2428;48.732;9.148;2022-07-22T15:34:42;5.90;;;5.40;;
4827;SDS011;2428;48.732;9.148;2022-07-22T15:37:09;5.60;;;5.20;;
4827;SDS011;2428;48.732;9.148;2022-07-22T15:39:35;6.10;;;5.53;;
4827;SDS011;2428;48.732;9.148;2022-07-22T15:42:01;5.87;;;5.37;;
4827;SDS011;2428;48.732;9.148;2022-07-22T15:44:27;6.20;;;5.67;;